createdAt,value
2022-11-26T00:00:20.500Z,49.95
2022-11-26T00:03:13.077Z,46.08
2022-11-26T00:05:44.666Z,47.33
2022-11-26T00:08:21.211Z,48.53
2022-11-26T00:10:53.863Z,46.70
2022-11-26T00:13:28.120Z,47.17
2022-11-26T00:15:58.909Z,47.15
2022-11-26T00:18:29.599Z,43.42
2022-11-26T00:21:02.418Z,43.15
2022-11-26T00:23:32.115Z,43.72
2022-11-26T00:26:04.678Z,44.03
2022-11-26T00:28:36.444Z,40.30
2022-11-26T00:31:08.274Z,40.67
2022-11-26T00:33:39.541Z,39.28
2022-11-26T00:36:22.269Z,38.97
2022-11-26T00:38:55.337Z,36.65
2022-11-26T00:41:27.205Z,37.60
2022-11-26T00:43:56.433Z,36.03
2022-11-26T00:46:27.021Z,38.53
2022-11-26T00:48:57.872Z,35.60
2022-11-26T00:51:29.804Z,37.63
2022-11-26T00:54:03.373Z,33.53
2022-11-26T00:56:37.873Z,40.40
2022-11-26T00:59:08.184Z,36.88
2022-11-26T01:01:37.954Z,34.72
2022-11-26T01:04:08.684Z,37.22
2022-11-26T01:09:09.580Z,35.60
2022-11-26T01:11:39.161Z,39.90
2022-11-26T01:14:08.817Z,38.70
2022-11-26T01:16:42.599Z,38.72
2022-11-26T01:19:14.981Z,42.90
2022-11-26T01:21:44.898Z,39.55
2022-11-26T01:24:14.158Z,43.92
2022-11-26T01:26:46.031Z,41.75
2022-11-26T01:29:18.667Z,40.85
2022-11-26T01:31:49.183Z,38.72
2022-11-26T01:34:20.184Z,38.28
2022-11-26T01:36:50.067Z,39.88
2022-11-26T01:39:21.096Z,39.13
2022-11-26T01:41:58.086Z,35.95
2022-11-26T01:44:30.160Z,37.05
2022-11-26T01:47:02.097Z,37.55
2022-11-26T01:49:34.485Z,38.90
2022-11-26T01:52:07.403Z,36.75
2022-11-26T01:54:39.864Z,37.08
2022-11-26T01:57:14.192Z,35.72
2022-11-26T01:59:46.654Z,36.15
2022-11-26T02:02:16.709Z,34.60
2022-11-26T02:04:56.333Z,36.17
2022-11-26T02:07:26.066Z,35.03
2022-11-26T02:09:55.474Z,36.08
2022-11-26T02:12:25.192Z,33.22
2022-11-26T02:14:54.618Z,37.17
2022-11-26T02:17:37.343Z,37.40
2022-11-26T02:20:27.843Z,34.63
2022-11-26T02:25:50.235Z,30.85
2022-11-26T02:28:44.476Z,31.35
2022-11-26T02:31:19.883Z,31.80
2022-11-26T02:33:55.903Z,35.30
2022-11-26T02:36:29.784Z,33.30
2022-11-26T02:38:59.964Z,32.70
2022-11-26T02:41:34.180Z,29.15
2022-11-26T02:44:04.483Z,32.53
2022-11-26T02:46:35.825Z,33.22
2022-11-26T02:49:06.107Z,33.17
2022-11-26T02:51:36.412Z,31.23
2022-11-26T02:56:37.795Z,33.00
2022-11-26T02:59:08.017Z,32.22
2022-11-26T03:01:43.554Z,35.38
2022-11-26T03:04:18.783Z,31.40
2022-11-26T03:06:48.788Z,31.02
2022-11-26T03:09:19.421Z,32.80
2022-11-26T03:11:48.858Z,32.88
2022-11-26T03:14:18.851Z,33.30
2022-11-26T03:16:49.738Z,32.67
2022-11-26T03:19:19.729Z,30.77
2022-11-26T03:21:49.367Z,32.65
2022-11-26T03:24:19.493Z,34.65
2022-11-26T03:26:49.089Z,29.35
2022-11-26T03:29:19.378Z,32.63
2022-11-26T03:31:50.280Z,32.33
2022-11-26T03:34:20.434Z,31.40
2022-11-26T03:36:49.804Z,28.77
2022-11-26T03:39:19.638Z,31.63
2022-11-26T03:41:51.228Z,31.67
2022-11-26T03:44:21.432Z,32.53
2022-11-26T03:46:52.435Z,30.50
2022-11-26T03:49:22.639Z,30.65
2022-11-26T03:51:53.101Z,29.50
2022-11-26T03:54:23.380Z,31.58
2022-11-26T03:56:52.936Z,30.00
2022-11-26T03:59:23.149Z,29.95
2022-11-26T04:01:53.951Z,28.70
2022-11-26T04:04:23.655Z,30.65
2022-11-26T04:06:53.095Z,31.23
2022-11-26T04:09:23.039Z,31.00
2022-11-26T04:11:52.560Z,31.48
2022-11-26T04:14:22.438Z,30.10
2022-11-26T04:16:53.312Z,31.05
2022-11-26T04:19:23.314Z,30.63
2022-11-26T04:21:52.719Z,33.08
2022-11-26T04:24:22.688Z,27.57
2022-11-26T04:26:51.940Z,30.77
2022-11-26T04:29:21.670Z,30.67
2022-11-26T04:31:51.195Z,30.10
2022-11-26T04:34:22.344Z,30.45
2022-11-26T04:36:51.921Z,30.83
2022-11-26T04:39:21.707Z,30.75
2022-11-26T04:41:50.940Z,30.05
2022-11-26T04:44:20.907Z,29.10
2022-11-26T04:46:50.388Z,31.33
2022-11-26T04:49:19.991Z,29.77
2022-11-26T04:51:50.727Z,29.92
2022-11-26T04:54:21.525Z,28.10
2022-11-26T04:56:50.947Z,30.92
2022-11-26T04:59:20.720Z,28.13
2022-11-26T05:01:49.981Z,28.58
2022-11-26T05:04:20.538Z,30.08
2022-11-26T05:06:51.233Z,30.92
2022-11-26T05:11:49.964Z,34.00
2022-11-26T05:14:20.343Z,34.93
2022-11-26T05:16:49.947Z,33.88
2022-11-26T05:19:19.751Z,32.40
2022-11-26T05:21:49.119Z,31.63
2022-11-26T05:24:20.770Z,33.03
2022-11-26T05:26:55.175Z,31.42
2022-11-26T05:29:27.121Z,31.10
2022-11-26T05:31:56.714Z,32.78
2022-11-26T05:34:27.355Z,31.83
2022-11-26T05:36:56.803Z,32.60
2022-11-26T05:39:27.926Z,30.10
2022-11-26T05:41:57.359Z,30.42
2022-11-26T05:44:27.651Z,30.63
2022-11-26T05:46:56.896Z,30.27
2022-11-26T05:49:27.077Z,31.95
2022-11-26T05:51:56.316Z,29.73
2022-11-26T05:54:28.048Z,29.67
2022-11-26T05:57:00.311Z,30.25
2022-11-26T05:59:30.766Z,28.65
2022-11-26T06:02:00.212Z,25.88
2022-11-26T06:04:30.847Z,28.20
2022-11-26T06:07:00.331Z,26.58
2022-11-26T06:09:31.577Z,26.25
2022-11-26T06:12:00.855Z,25.48
2022-11-26T06:14:30.500Z,25.70
2022-11-26T06:16:59.932Z,27.55
2022-11-26T06:19:29.986Z,25.17
2022-11-26T06:21:59.461Z,23.85
2022-11-26T06:24:31.020Z,25.67
2022-11-26T06:27:00.303Z,24.77
2022-11-26T06:29:30.483Z,22.60
2022-11-26T06:31:59.819Z,23.38
2022-11-26T06:34:29.752Z,25.25
2022-11-26T06:36:59.028Z,25.33
2022-11-26T06:39:28.786Z,26.05
2022-11-26T06:41:59.447Z,25.17
2022-11-26T06:44:29.491Z,24.58
2022-11-26T06:46:58.726Z,27.67
2022-11-26T06:49:28.403Z,27.92
2022-11-26T06:51:57.980Z,29.50
2022-11-26T06:54:28.162Z,31.33
2022-11-26T06:56:58.836Z,32.35
2022-11-26T06:59:29.257Z,28.33
2022-11-26T07:01:58.860Z,27.80
2022-11-26T07:04:28.905Z,26.70
2022-11-26T07:06:58.609Z,23.90
2022-11-26T07:09:28.361Z,23.48
2022-11-26T07:11:59.158Z,24.00
2022-11-26T07:14:28.771Z,23.05
2022-11-26T07:16:58.250Z,22.67
2022-11-26T07:19:27.840Z,22.63
2022-11-26T07:21:57.083Z,20.85
2022-11-26T07:24:27.358Z,22.63
2022-11-26T07:26:56.760Z,23.42
2022-11-26T07:29:27.958Z,27.60
2022-11-26T07:31:57.511Z,28.63
2022-11-26T07:34:27.529Z,30.07
2022-11-26T07:36:58.370Z,30.45
2022-11-26T07:39:28.464Z,30.58
2022-11-26T07:41:58.028Z,24.35
2022-11-26T07:44:29.484Z,23.95
2022-11-26T07:46:58.915Z,23.38
2022-11-26T07:49:28.800Z,22.15
2022-11-26T07:51:58.083Z,22.40
2022-11-26T07:54:28.298Z,20.88
2022-11-26T07:56:57.556Z,22.25
2022-11-26T07:59:29.138Z,21.30
2022-11-26T08:01:58.498Z,21.85
2022-11-26T08:04:28.334Z,21.83
2022-11-26T08:06:57.624Z,21.92
2022-11-26T08:09:27.399Z,21.45
2022-11-26T08:11:56.669Z,21.30
2022-11-26T08:14:26.671Z,23.40
2022-11-26T08:16:57.780Z,22.20
2022-11-26T08:19:27.599Z,21.15
2022-11-26T08:21:56.817Z,21.45
2022-11-26T08:24:26.788Z,25.20
2022-11-26T08:26:56.244Z,22.35
2022-11-26T08:29:26.234Z,24.50
2022-11-26T08:31:57.302Z,23.75
2022-11-26T08:34:27.160Z,24.08
2022-11-26T08:36:57.171Z,22.40
2022-11-26T08:39:27.646Z,23.17
2022-11-26T08:41:57.403Z,24.25
2022-11-26T08:44:27.251Z,22.17
2022-11-26T08:46:57.932Z,21.55
2022-11-26T08:49:28.089Z,23.33
2022-11-26T08:51:58.284Z,21.15
2022-11-26T08:54:28.591Z,22.20
2022-11-26T08:56:58.227Z,21.15
2022-11-26T08:59:28.357Z,21.60
2022-11-26T09:01:59.156Z,21.42
2022-11-26T09:04:29.178Z,22.42
2022-11-26T09:06:58.411Z,23.80
2022-11-26T09:09:28.763Z,23.25
2022-11-26T09:11:59.874Z,23.95
2022-11-26T09:14:31.978Z,23.38
2022-11-26T09:17:02.799Z,21.92
2022-11-26T09:19:33.229Z,23.55
2022-11-26T09:22:02.833Z,21.30
2022-11-26T09:24:32.464Z,23.05
2022-11-26T09:27:07.557Z,22.70
2022-11-26T09:29:38.260Z,22.17
2022-11-26T09:32:24.266Z,23.33
2022-11-26T09:34:56.496Z,23.02
2022-11-26T09:37:25.951Z,22.13
2022-11-26T09:39:56.121Z,21.73
2022-11-26T09:42:39.064Z,24.60
2022-11-26T09:45:31.972Z,22.55
2022-11-26T09:50:39.434Z,21.58
2022-11-26T09:53:18.876Z,24.63
2022-11-26T09:55:54.755Z,22.80
2022-11-26T09:58:37.114Z,24.38
2022-11-26T10:01:10.290Z,23.85
2022-11-26T10:03:47.169Z,24.63
2022-11-26T10:06:32.095Z,24.40
2022-11-26T10:09:26.233Z,25.77
2022-11-26T10:12:10.929Z,22.90
2022-11-26T10:14:57.116Z,26.08
2022-11-26T10:17:43.284Z,23.25
2022-11-26T10:21:08.444Z,22.77
2022-11-26T10:23:47.653Z,24.40
2022-11-26T10:26:28.118Z,23.90
2022-11-26T10:29:18.982Z,23.25
2022-11-26T10:31:51.984Z,22.27
2022-11-26T10:34:32.308Z,24.20
2022-11-26T10:37:07.157Z,23.52
2022-11-26T10:39:38.952Z,24.27
2022-11-26T10:42:22.507Z,24.70
2022-11-26T10:44:56.642Z,21.85
2022-11-26T10:47:40.950Z,22.63
2022-11-26T10:50:46.567Z,22.23
2022-11-26T10:53:28.374Z,22.63
2022-11-26T10:56:13.757Z,21.25
2022-11-26T10:58:46.806Z,22.52
2022-11-26T11:01:17.624Z,22.23
2022-11-26T11:04:07.727Z,22.45
2022-11-26T11:06:42.543Z,22.95
2022-11-26T11:09:30.959Z,21.33
2022-11-26T11:12:23.439Z,21.35
2022-11-26T11:14:53.634Z,20.58
2022-11-26T11:17:32.558Z,19.50
2022-11-26T11:20:08.125Z,21.20
2022-11-26T11:22:37.927Z,21.73
2022-11-26T11:25:23.469Z,19.38
2022-11-26T11:27:55.451Z,19.48
2022-11-26T11:30:27.300Z,18.50
2022-11-26T11:32:58.674Z,19.63
2022-11-26T11:38:00.555Z,17.45
2022-11-26T11:40:42.479Z,19.65
2022-11-26T11:43:20.147Z,19.95
2022-11-26T11:45:59.505Z,21.17
2022-11-26T11:48:38.334Z,17.80
2022-11-26T11:51:17.462Z,19.30
2022-11-26T11:53:58.530Z,18.60
2022-11-26T11:56:36.128Z,20.30
2022-11-26T11:59:22.988Z,19.75
2022-11-26T12:02:17.099Z,19.55
2022-11-26T12:05:06.823Z,19.65
2022-11-26T12:07:42.001Z,20.40
2022-11-26T12:10:16.876Z,19.77
2022-11-26T12:12:49.344Z,21.00
2022-11-26T12:15:27.344Z,18.98
2022-11-26T12:18:02.259Z,20.75
2022-11-26T12:20:36.407Z,19.33
2022-11-26T12:23:22.848Z,20.67
2022-11-26T12:25:57.320Z,18.75
2022-11-26T12:28:32.847Z,22.73
2022-11-26T12:31:08.004Z,19.10
2022-11-26T12:33:43.764Z,20.63
2022-11-26T12:36:21.637Z,21.75
2022-11-26T12:38:55.621Z,19.58
2022-11-26T12:41:28.984Z,20.05
2022-11-26T12:44:06.844Z,18.58
2022-11-26T12:46:45.067Z,19.35
2022-11-26T12:49:22.247Z,19.48
2022-11-26T12:52:02.751Z,21.08
2022-11-26T12:54:38.821Z,18.30
2022-11-26T12:57:16.511Z,19.42
2022-11-26T12:59:53.064Z,19.50
2022-11-26T13:02:27.567Z,19.88
2022-11-26T13:04:58.821Z,21.15
2022-11-26T13:07:44.834Z,20.17
2022-11-26T13:10:28.404Z,19.92
2022-11-26T13:13:07.325Z,17.77
2022-11-26T13:15:44.614Z,20.35
2022-11-26T13:18:19.812Z,19.13
2022-11-26T13:21:06.407Z,18.45
2022-11-26T13:23:49.867Z,18.13
2022-11-26T13:26:33.937Z,18.08
2022-11-26T13:29:35.135Z,21.27
2022-11-26T13:32:21.094Z,19.38
2022-11-26T13:35:10.659Z,19.75
2022-11-26T13:38:06.973Z,19.65
2022-11-26T13:40:58.766Z,17.95
2022-11-26T13:44:04.618Z,18.30
2022-11-26T13:46:40.065Z,16.85
2022-11-26T13:49:17.279Z,16.52
2022-11-26T13:51:54.860Z,17.60
2022-11-26T13:54:28.583Z,16.08
2022-11-26T13:57:02.644Z,16.92
2022-11-26T13:59:32.944Z,18.33
2022-11-26T14:02:38.962Z,15.05
2022-11-26T14:05:12.992Z,17.02
2022-11-26T14:07:44.090Z,16.10
2022-11-26T14:10:41.784Z,16.25
2022-11-26T14:13:18.648Z,17.27
2022-11-26T14:16:00.113Z,15.43
2022-11-26T14:19:00.964Z,17.25
2022-11-26T14:21:32.283Z,18.60
2022-11-26T14:24:03.044Z,20.05
2022-11-26T14:26:37.597Z,22.30
2022-11-26T14:29:15.828Z,21.77
2022-11-26T14:31:52.436Z,19.65
2022-11-26T14:34:30.667Z,19.38
2022-11-26T14:37:03.278Z,22.08
2022-11-26T14:39:33.547Z,20.98
2022-11-26T14:42:06.238Z,18.25
2022-11-26T14:44:36.891Z,20.77
2022-11-26T14:47:12.918Z,20.27
2022-11-26T14:49:45.973Z,18.15
2022-11-26T14:52:24.952Z,18.83
2022-11-26T14:54:57.814Z,18.40
2022-11-26T14:57:30.598Z,19.65
2022-11-26T15:00:02.328Z,21.48
2022-11-26T15:05:15.023Z,20.65
2022-11-26T15:07:46.439Z,21.65
2022-11-26T15:10:25.280Z,20.83
2022-11-26T15:12:55.424Z,22.88
2022-11-26T15:15:26.462Z,20.42
2022-11-26T15:17:59.090Z,21.92
2022-11-26T15:20:29.411Z,20.75
2022-11-26T15:23:02.236Z,22.73
2022-11-26T15:25:34.310Z,20.98
2022-11-26T15:28:05.605Z,19.33
2022-11-26T15:30:37.546Z,19.75
2022-11-26T15:33:14.945Z,18.35
2022-11-26T15:35:45.608Z,20.15
2022-11-26T15:38:18.065Z,21.05
2022-11-26T15:40:50.572Z,21.42
2022-11-26T15:43:28.028Z,19.45
2022-11-26T15:46:02.218Z,20.30
2022-11-26T15:48:51.539Z,20.65
2022-11-26T15:51:33.738Z,22.02
2022-11-26T15:54:07.781Z,21.30
2022-11-26T15:56:40.636Z,22.75
2022-11-26T15:59:16.804Z,21.77
2022-11-26T16:01:48.506Z,23.35
2022-11-26T16:04:41.536Z,23.85
2022-11-26T16:07:14.064Z,23.30
2022-11-26T16:09:45.562Z,24.13
2022-11-26T16:12:30.532Z,22.95
2022-11-26T16:15:22.062Z,25.02
2022-11-26T16:17:52.726Z,24.10
2022-11-26T16:20:23.950Z,26.13
2022-11-26T16:22:57.047Z,25.92
2022-11-26T16:25:29.636Z,25.35
2022-11-26T16:28:15.599Z,24.45
2022-11-26T16:30:45.876Z,24.25
2022-11-26T16:35:46.400Z,24.02
2022-11-26T16:38:21.831Z,23.92
2022-11-26T16:40:52.943Z,24.40
2022-11-26T16:43:23.215Z,23.08
2022-11-26T16:45:56.212Z,23.08
2022-11-26T16:48:27.884Z,25.38
2022-11-26T16:50:58.089Z,23.25
2022-11-26T16:53:28.008Z,23.00
2022-11-26T16:55:59.741Z,24.33
2022-11-26T16:58:31.613Z,24.77
2022-11-26T17:01:01.602Z,23.58
2022-11-26T17:03:33.344Z,26.45
2022-11-26T17:06:05.936Z,26.92
2022-11-26T17:08:36.874Z,27.40
2022-11-26T17:11:07.942Z,28.77
2022-11-26T17:13:37.866Z,26.50
2022-11-26T17:16:13.326Z,27.65
2022-11-26T17:18:43.901Z,26.70
2022-11-26T17:21:13.684Z,26.55
2022-11-26T17:23:43.575Z,26.03
2022-11-26T17:26:29.123Z,25.83
2022-11-26T17:28:59.065Z,25.67
2022-11-26T17:31:30.131Z,24.60
2022-11-26T17:34:00.244Z,27.52
2022-11-26T17:36:35.407Z,27.75
2022-11-26T17:39:06.999Z,27.35
2022-11-26T17:41:37.986Z,26.52
2022-11-26T17:44:07.624Z,26.25
2022-11-26T17:46:54.454Z,28.63
2022-11-26T17:49:27.151Z,31.42
2022-11-26T17:51:56.382Z,27.70
2022-11-26T17:54:26.193Z,27.05
2022-11-26T17:56:57.148Z,25.20
2022-11-26T17:59:29.536Z,24.85
2022-11-26T18:01:59.210Z,28.08
2022-11-26T18:04:28.892Z,24.00
2022-11-26T18:07:03.196Z,23.45
2022-11-26T18:09:33.588Z,24.15
2022-11-26T18:12:05.158Z,24.48
2022-11-26T18:14:35.993Z,22.30
2022-11-26T18:17:06.035Z,23.05
2022-11-26T18:19:40.724Z,24.38
2022-11-26T18:22:16.239Z,23.02
2022-11-26T18:24:56.420Z,24.02
2022-11-26T18:27:30.832Z,23.52
2022-11-26T18:30:00.974Z,23.88
2022-11-26T18:32:30.196Z,23.13
2022-11-26T18:35:01.596Z,23.25
2022-11-26T18:37:30.927Z,25.20
2022-11-26T18:40:00.526Z,24.65
2022-11-26T18:42:38.910Z,24.27
2022-11-26T18:45:11.710Z,23.75
2022-11-26T18:47:41.487Z,22.40
2022-11-26T18:50:13.913Z,26.10
2022-11-26T18:52:43.397Z,24.67
2022-11-26T18:55:15.464Z,24.60
2022-11-26T18:57:46.276Z,23.55
2022-11-26T19:00:16.771Z,24.77
2022-11-26T19:02:46.271Z,25.10
2022-11-26T19:05:16.645Z,23.67
2022-11-26T19:07:46.174Z,22.95
2022-11-26T19:10:16.350Z,25.05
2022-11-26T19:12:47.607Z,25.13
2022-11-26T19:15:17.315Z,24.25
2022-11-26T19:17:46.817Z,21.92
2022-11-26T19:20:16.870Z,25.70
2022-11-26T19:22:46.534Z,26.67
2022-11-26T19:25:16.970Z,23.88
2022-11-26T19:27:48.119Z,22.93
2022-11-26T19:30:19.103Z,22.83
2022-11-26T19:32:48.356Z,26.08
2022-11-26T19:35:18.389Z,23.88
2022-11-26T19:37:47.897Z,25.27
2022-11-26T19:40:17.693Z,22.40
2022-11-26T19:42:48.470Z,23.17
2022-11-26T19:45:19.714Z,24.13
2022-11-26T19:47:50.860Z,24.15
2022-11-26T19:50:20.552Z,25.17
2022-11-26T19:52:50.324Z,24.58
2022-11-26T19:55:20.038Z,26.17
2022-11-26T19:57:50.745Z,28.27
2022-11-26T20:02:50.110Z,24.65
2022-11-26T20:05:20.797Z,24.30
2022-11-26T20:07:50.413Z,25.70
2022-11-26T20:10:20.259Z,26.20
2022-11-26T20:12:51.338Z,25.70
2022-11-26T20:15:21.321Z,26.85
2022-11-26T20:17:50.783Z,27.27
2022-11-26T20:20:20.929Z,26.77
2022-11-26T20:22:50.265Z,27.42
2022-11-26T20:25:20.120Z,25.52
2022-11-26T20:27:53.171Z,26.02
2022-11-26T20:30:25.150Z,27.98
2022-11-26T20:32:54.708Z,27.83
2022-11-26T20:35:24.587Z,26.25
2022-11-26T20:37:54.152Z,29.50
2022-11-26T20:40:24.218Z,28.90
2022-11-26T20:42:54.933Z,30.52
2022-11-26T20:45:24.955Z,29.67
2022-11-26T20:47:54.413Z,29.10
2022-11-26T20:50:24.560Z,29.35
2022-11-26T20:52:54.160Z,29.17
2022-11-26T20:55:25.370Z,28.38
2022-11-26T20:57:56.332Z,27.98
2022-11-26T21:00:27.734Z,27.95
2022-11-26T21:02:57.338Z,26.02
2022-11-26T21:05:27.787Z,26.00
2022-11-26T21:07:57.191Z,25.60
2022-11-26T21:10:29.150Z,25.25
2022-11-26T21:13:00.180Z,28.13
2022-11-26T21:15:29.899Z,24.25
2022-11-26T21:17:59.954Z,25.35
2022-11-26T21:20:36.052Z,24.35
2022-11-26T21:23:06.178Z,26.48
2022-11-26T21:25:39.771Z,28.08
2022-11-26T21:28:12.035Z,28.88
2022-11-26T21:30:42.357Z,27.27
2022-11-26T21:33:11.872Z,25.42
2022-11-26T21:35:41.544Z,26.80
2022-11-26T21:38:11.367Z,25.45
2022-11-26T21:40:41.280Z,26.05
2022-11-26T21:43:12.187Z,25.92
2022-11-26T21:45:42.384Z,29.48
2022-11-26T21:48:11.643Z,28.08
2022-11-26T21:50:41.601Z,26.73
2022-11-26T21:53:10.868Z,29.17
2022-11-26T21:55:40.486Z,27.23
2022-11-26T21:58:12.387Z,24.38
2022-11-26T22:00:42.717Z,24.38
2022-11-26T22:03:13.784Z,22.65
2022-11-26T22:05:44.115Z,22.40
2022-11-26T22:08:13.779Z,19.67
2022-11-26T22:10:43.675Z,20.95
2022-11-26T22:13:14.703Z,20.55
2022-11-26T22:15:46.522Z,20.73
2022-11-26T22:18:15.877Z,19.55
2022-11-26T22:20:52.077Z,21.25
2022-11-26T22:23:23.017Z,20.48
2022-11-26T22:25:52.833Z,18.98
2022-11-26T22:28:28.492Z,20.08
2022-11-26T22:30:59.733Z,18.95
2022-11-26T22:33:29.293Z,19.30
2022-11-26T22:36:02.758Z,21.38
2022-11-26T22:38:32.591Z,20.05
2022-11-26T22:41:06.269Z,20.60
2022-11-26T22:43:37.626Z,18.70
2022-11-26T22:46:08.079Z,17.40
2022-11-26T22:48:37.548Z,19.73
2022-11-26T22:51:08.121Z,17.50
2022-11-26T22:53:38.572Z,17.20
2022-11-26T22:56:09.024Z,15.57
2022-11-26T22:58:39.981Z,15.75
2022-11-26T23:01:10.729Z,15.57
2022-11-26T23:03:40.547Z,16.45
2022-11-26T23:06:12.376Z,15.05
2022-11-26T23:08:42.662Z,16.30
2022-11-26T23:13:46.700Z,15.83
2022-11-26T23:16:17.167Z,17.42
2022-11-26T23:18:47.269Z,17.00
2022-11-26T23:21:18.837Z,17.33
2022-11-26T23:23:49.134Z,17.17
2022-11-26T23:26:26.402Z,16.58
2022-11-26T23:28:58.419Z,18.10
2022-11-26T23:31:30.291Z,18.83
2022-11-26T23:34:00.025Z,17.08
2022-11-26T23:36:31.000Z,16.70
2022-11-26T23:39:02.489Z,18.67
2022-11-26T23:41:32.441Z,18.05
2022-11-26T23:44:03.876Z,18.10
2022-11-26T23:46:35.654Z,18.70
2022-11-26T23:51:35.474Z,17.15
2022-11-26T23:54:05.123Z,16.65
2022-11-26T23:56:36.619Z,17.77
2022-11-26T23:59:07.578Z,17.75
